Time;durP1;ratioP1;P1;durP2;ratioP2;P2;SDS_P1;SDS_P2;PMS_P1;PMS_P2;Temp;Humidity;BMP_temperature;BMP_pressure;BME280_temperature;BME280_humidity;BME280_pressure;Samples;Min_cycle;Max_cycle;Signal;HPM_P1;HPM_P2
2022/09/06 00:00:41;;;;;;;4.60;3.80;;;;;;;17.59;72.64;98388.34;7384990;19;20019;-71
2022/09/06 00:03:08;;;;;;;5.35;3.85;;;;;;;17.59;72.85;98383.84;7385114;19;20026;-70
2022/09/06 00:05:35;;;;;;;8.75;3.97;;;;;;;17.57;72.30;98385.06;7388447;19;20015;-71
2022/09/06 00:08:03;;;;;;;4.07;3.70;;;;;;;17.55;72.34;98385.25;7387300;19;20029;-71
2022/09/06 00:10:31;;;;;;;7.00;3.65;;;;;;;17.55;72.46;98385.25;7385536;19;20018;-71
2022/09/06 00:13:06;;;;;;;5.28;3.78;;;;;;;17.43;72.69;98379.69;7385706;19;20018;-70
2022/09/06 00:15:33;;;;;;;5.53;3.83;;;;;;;17.33;72.51;98382.72;7385195;19;21347;-70
2022/09/06 00:18:02;;;;;;;4.63;4.13;;;;;;;17.28;73.18;98381.66;7386019;19;20018;-70
2022/09/06 00:20:29;;;;;;;5.30;4.07;;;;;;;17.21;73.90;98378.13;7381244;19;21598;-70
2022/09/06 00:23:00;;;;;;;5.50;4.47;;;;;;;17.14;74.65;98377.25;7387411;19;20017;-70
2022/09/06 00:25:28;;;;;;;7.30;4.20;;;;;;;17.13;73.66;98375.63;7384936;19;20017;-72
2022/09/06 00:28:02;;;;;;;5.32;3.33;;;;;;;17.05;74.18;98374.75;7384427;19;20026;-71
2022/09/06 00:30:30;;;;;;;6.75;4.03;;;;;;;17.05;73.71;98374.75;7382699;19;21168;-71
2022/09/06 00:32:57;;;;;;;5.47;3.50;;;;;;;17.04;73.90;98375.78;7386836;19;20015;-71
2022/09/06 00:35:25;;;;;;;5.90;4.00;;;;;;;16.98;74.70;98379.25;7384296;19;20505;-71
2022/09/06 00:37:56;;;;;;;7.82;4.32;;;;;;;16.93;75.20;98376.34;7385621;19;20026;-71
2022/09/06 00:40:23;;;;;;;4.43;3.70;;;;;;;16.84;74.93;98377.50;7383819;19;20347;-71
2022/09/06 00:42:50;;;;;;;6.18;4.20;;;;;;;16.86;74.69;98386.97;7386520;19;20020;-71
2022/09/06 00:45:17;;;;;;;6.82;3.65;;;;;;;16.89;74.55;98383.06;7386120;19;20022;-71
2022/09/06 00:47:44;;;;;;;4.25;3.85;;;;;;;16.83;74.29;98371.34;7383268;19;20022;-71
2022/09/06 00:50:12;;;;;;;4.25;3.47;;;;;;;16.82;74.75;98371.50;7383865;19;20029;-71
2022/09/06 00:52:40;;;;;;;5.13;4.03;;;;;;;16.82;74.89;98368.84;7384100;19;20023;-71
2022/09/06 00:55:07;;;;;;;4.20;3.50;;;;;;;16.77;74.96;98372.13;7385036;19;20086;-71
2022/09/06 00:57:34;;;;;;;4.40;3.78;;;;;;;16.74;75.21;98368.97;7385849;19;20111;-71
2022/09/06 01:00:03;;;;;;;6.20;3.72;;;;;;;16.73;75.63;98365.47;7389503;19;20018;-71
2022/09/06 01:02:29;;;;;;;6.90;3.95;;;;;;;16.73;75.67;98370.81;7389838;19;20028;-71
2022/09/06 01:04:56;;;;;;;4.82;3.90;;;;;;;16.76;75.83;98366.94;7392383;19;20010;-71
2022/09/06 01:07:37;;;;;;;6.47;4.03;;;;;;;16.83;75.62;98374.00;7389356;19;20379;-70
2022/09/06 01:10:31;;;;;;;8.73;4.88;;;;;;;16.84;75.57;98378.31;7387430;19;20026;-70
2022/09/06 01:13:07;;;;;;;7.00;3.70;;;;;;;16.89;75.54;98375.06;7387177;19;20757;-71
2022/09/06 01:15:55;;;;;;;5.28;4.10;;;;;;;16.92;75.26;98379.19;7394051;19;20029;-70
2022/09/06 01:18:32;;;;;;;6.43;4.15;;;;;;;16.95;74.58;98376.13;7389257;19;20022;-71
2022/09/06 01:21:11;;;;;;;6.43;4.07;;;;;;;16.93;74.41;98381.69;7388833;19;20014;-71
2022/09/06 01:24:15;;;;;;;4.82;4.32;;;;;;;16.94;74.12;98383.31;7391557;19;20010;-70
2022/09/06 01:27:06;;;;;;;4.65;3.95;;;;;;;16.98;74.18;98387.25;7388810;19;20016;-71
2022/09/06 01:29:38;;;;;;;5.65;4.00;;;;;;;16.97;74.57;98390.13;7391472;19;20017;-71
2022/09/06 01:32:21;;;;;;;4.35;3.78;;;;;;;16.99;74.26;98391.56;7392556;19;20025;-71
2022/09/06 01:35:10;;;;;;;6.07;3.85;;;;;;;16.97;74.33;98398.94;7389951;19;20406;-71
2022/09/06 01:37:37;;;;;;;4.18;3.78;;;;;;;16.89;74.54;98407.94;7389661;19;20358;-73
2022/09/06 01:40:04;;;;;;;7.07;3.92;;;;;;;16.80;74.77;98402.97;7392042;19;20019;-71
2022/09/06 01:42:32;;;;;;;9.25;4.35;;;;;;;16.76;74.69;98401.66;7386704;19;20023;-71
2022/09/06 01:45:01;;;;;;;6.60;4.43;;;;;;;16.76;75.07;98407.00;7387212;19;20027;-71
2022/09/06 01:47:37;;;;;;;4.70;3.92;;;;;;;16.74;75.18;98404.50;7391922;19;20094;-71
2022/09/06 01:50:23;;;;;;;4.90;4.13;;;;;;;16.78;75.12;98411.16;7388516;19;20421;-71
2022/09/06 01:53:00;;;;;;;5.38;4.47;;;;;;;16.70;74.88;98402.44;7389468;19;20014;-71
2022/09/06 01:55:34;;;;;;;5.30;4.18;;;;;;;16.73;74.99;98410.06;7391217;19;20014;-71
2022/09/06 01:58:28;;;;;;;5.10;3.70;;;;;;;16.68;75.17;98403.44;7386945;19;20031;-71
2022/09/06 02:01:04;;;;;;;5.85;3.50;;;;;;;16.70;75.13;98419.28;7386077;19;20017;-71
2022/09/06 02:03:59;;;;;;;9.38;3.80;;;;;;;16.70;75.04;98405.94;7391731;19;20042;-71
2022/09/06 02:06:29;;;;;;;5.20;4.10;;;;;;;16.73;75.29;98407.41;7388291;19;20014;-71
2022/09/06 02:09:09;;;;;;;4.40;4.00;;;;;;;16.71;75.58;98402.25;7388838;19;20014;-71
2022/09/06 02:11:41;;;;;;;5.07;4.10;;;;;;;16.73;75.51;98397.53;7385729;19;20026;-71
2022/09/06 02:14:12;;;;;;;5.60;3.57;;;;;;;16.74;75.71;98398.34;7389119;19;20014;-71
2022/09/06 02:16:43;;;;;;;7.68;4.30;;;;;;;16.72;75.61;98405.72;7386756;19;20266;-71
2022/09/06 02:19:32;;;;;;;8.52;4.15;;;;;;;16.71;75.28;98409.44;7390173;19;20094;-71
2022/09/06 02:22:00;;;;;;;6.78;4.20;;;;;;;16.81;75.91;98423.31;7388047;19;20484;-71
2022/09/06 02:24:29;;;;;;;5.07;4.45;;;;;;;17.01;75.27;98533.00;7388466;19;20007;-71
2022/09/06 02:26:56;;;;;;;5.35;3.72;;;;;;;17.37;74.10;98505.31;7386113;19;20022;-71
2022/09/06 02:29:23;;;;;;;6.05;4.30;;;;;;;17.61;73.57;98512.84;7389062;19;20561;-71
2022/09/06 02:31:59;;;;;;;5.43;4.22;;;;;;;17.79;72.93;98509.69;7387442;19;20010;-71
2022/09/06 02:34:26;;;;;;;4.70;4.22;;;;;;;17.92;72.48;98487.53;7387424;19;20021;-71
2022/09/06 02:36:54;;;;;;;10.25;5.40;;;;;;;18.05;72.55;98486.75;7390258;19;20029;-71
2022/09/06 02:39:21;;;;;;;6.63;5.05;;;;;;;18.08;72.64;98476.44;7389834;19;20370;-71
2022/09/06 02:41:48;;;;;;;5.80;4.53;;;;;;;18.09;72.71;98470.09;7387846;19;20017;-71
2022/09/06 02:44:15;;;;;;;7.03;4.68;;;;;;;18.12;72.24;98466.19;7388398;19;20050;-71
2022/09/06 02:46:41;;;;;;;7.63;5.30;;;;;;;18.14;72.21;98474.81;7388862;19;20021;-71
2022/09/06 02:49:08;;;;;;;8.25;4.93;;;;;;;18.36;70.47;98484.34;7389070;19;20082;-71
2022/09/06 02:51:37;;;;;;;7.55;4.45;;;;;;;18.58;70.57;98482.31;7388652;19;20019;-71
2022/09/06 02:54:05;;;;;;;4.80;4.30;;;;;;;18.72;70.31;98488.53;7389226;19;20011;-72
2022/09/06 02:56:32;;;;;;;9.52;5.25;;;;;;;18.80;70.26;98499.09;7388125;19;20015;-71
2022/09/06 02:58:59;;;;;;;5.70;4.40;;;;;;;18.83;70.04;98506.72;7388723;19;20081;-71
2022/09/06 03:01:26;;;;;;;5.93;4.07;;;;;;;18.91;70.96;98496.81;7386197;19;20592;-72
2022/09/06 03:03:53;;;;;;;9.38;5.03;;;;;;;18.92;71.24;98475.16;7386606;19;20701;-72
2022/09/06 03:06:20;;;;;;;8.30;4.40;;;;;;;18.59;74.04;98467.09;7386441;19;20020;-72
2022/09/06 03:08:47;;;;;;;13.23;5.97;;;;;;;18.10;78.47;98458.34;7388249;19;20014;-73
2022/09/06 03:11:15;;;;;;;6.40;5.18;;;;;;;17.89;79.47;98442.44;7387482;19;20370;-70
2022/09/06 03:13:42;;;;;;;7.85;4.72;;;;;;;17.79;80.14;98437.44;7389016;19;20078;-72
2022/09/06 03:16:09;;;;;;;10.98;5.35;;;;;;;17.76;80.81;98419.91;7387047;19;20018;-71
2022/09/06 03:18:35;;;;;;;6.30;5.20;;;;;;;17.64;81.43;98418.84;7387132;19;20648;-72
2022/09/06 03:21:02;;;;;;;7.60;6.15;;;;;;;17.51;82.62;98435.66;7387751;19;20016;-72
2022/09/06 03:23:29;;;;;;;10.93;6.40;;;;;;;17.44;82.94;98424.09;7386422;19;20040;-72
2022/09/06 03:25:56;;;;;;;11.20;6.38;;;;;;;17.40;83.07;98409.47;7389572;19;20454;-72
2022/09/06 03:28:23;;;;;;;8.85;6.05;;;;;;;17.40;82.75;98398.75;7388705;19;20026;-72
2022/09/06 03:30:50;;;;;;;8.95;7.10;;;;;;;17.38;82.70;98400.00;7386658;19;20077;-72
2022/09/06 03:33:18;;;;;;;14.75;6.95;;;;;;;17.30;82.67;98401.00;7385620;19;20379;-71
2022/09/06 03:35:53;;;;;;;8.57;6.32;;;;;;;17.27;82.78;98404.91;7386932;19;20490;-72
2022/09/06 03:38:20;;;;;;;11.98;6.32;;;;;;;17.24;83.04;98410.63;7387716;19;20013;-72
2022/09/06 03:40:48;;;;;;;12.82;7.50;;;;;;;17.16;83.78;98410.78;7384086;19;20019;-71
2022/09/06 03:43:16;;;;;;;9.77;7.47;;;;;;;17.05;84.62;98412.16;7387674;19;20029;-71
2022/09/06 03:45:46;;;;;;;10.80;7.47;;;;;;;16.96;84.94;98424.03;7387222;19;20006;-72
2022/09/06 03:48:14;;;;;;;8.52;7.63;;;;;;;16.85;85.40;98445.94;7386211;19;20030;-72
2022/09/06 03:50:49;;;;;;;10.52;7.03;;;;;;;16.77;85.32;98443.38;7385440;19;20026;-72
2022/09/06 03:53:16;;;;;;;10.50;8.30;;;;;;;16.58;84.88;98437.69;7388967;19;20010;-72
2022/09/06 03:55:44;;;;;;;9.40;7.57;;;;;;;16.53;84.90;98439.28;7384658;19;20019;-71
2022/09/06 03:58:12;;;;;;;13.93;7.40;;;;;;;16.58;84.56;98447.53;7386439;19;20017;-71
2022/09/06 04:00:38;;;;;;;9.23;7.72;;;;;;;16.47;84.91;98443.53;7387257;19;20015;-72
2022/09/06 04:03:05;;;;;;;8.30;6.95;;;;;;;16.58;84.60;98437.69;7387702;19;20015;-71
2022/09/06 04:05:32;;;;;;;8.40;6.50;;;;;;;16.57;84.52;98446.72;7386559;19;20018;-71
2022/09/06 04:07:59;;;;;;;9.75;6.93;;;;;;;16.55;84.77;98448.75;7385812;19;21066;-72
2022/09/06 04:10:25;;;;;;;11.05;6.57;;;;;;;16.59;84.90;98459.91;7385984;19;20029;-72
2022/09/06 04:12:52;;;;;;;9.48;7.13;;;;;;;16.62;84.99;98443.47;7385051;19;20017;-71
2022/09/06 04:15:19;;;;;;;13.40;7.78;;;;;;;16.65;85.13;98443.91;7387771;19;20017;-72
2022/09/06 04:17:46;;;;;;;11.85;7.93;;;;;;;16.65;85.25;98433.22;7386093;19;20014;-72
2022/09/06 04:20:13;;;;;;;8.85;7.28;;;;;;;16.66;85.09;98424.19;7387212;19;20029;-72
2022/09/06 04:22:40;;;;;;;13.68;7.18;;;;;;;16.67;84.84;98430.38;7386358;19;20038;-72
2022/09/06 04:25:07;;;;;;;13.98;7.20;;;;;;;16.65;85.21;98427.88;7385022;19;20026;-72
2022/09/06 04:27:34;;;;;;;9.93;8.48;;;;;;;16.68;85.33;98440.03;7385018;19;20034;-71
2022/09/06 04:30:01;;;;;;;8.60;7.68;;;;;;;16.76;85.37;98441.75;7382695;19;20023;-72
2022/09/06 04:32:28;;;;;;;13.75;7.57;;;;;;;16.79;85.44;98438.72;7386696;19;20018;-72
2022/09/06 04:34:54;;;;;;;8.82;7.88;;;;;;;16.89;85.01;98456.03;7384182;19;20039;-71
2022/09/06 04:37:21;;;;;;;12.75;7.85;;;;;;;16.86;85.50;98458.28;7387636;19;20019;-71
2022/09/06 04:39:48;;;;;;;9.40;8.32;;;;;;;16.88;85.74;98451.75;7385592;19;20025;-72
2022/09/06 04:42:14;;;;;;;12.13;7.88;;;;;;;17.01;85.16;98442.13;7384318;19;20063;-71
2022/09/06 04:44:41;;;;;;;9.48;7.47;;;;;;;17.04;84.95;98442.59;7384192;19;20018;-70
2022/09/06 04:47:13;;;;;;;12.93;9.02;;;;;;;17.00;85.11;98430.63;7383805;19;20018;-72
2022/09/06 04:49:41;;;;;;;11.85;8.77;;;;;;;16.92;85.13;98436.13;7383876;19;20022;-71
2022/09/06 04:52:08;;;;;;;13.57;8.23;;;;;;;16.85;85.26;98443.25;7381592;19;20476;-72
2022/09/06 04:54:35;;;;;;;11.75;7.88;;;;;;;16.82;85.09;98427.63;7385602;19;20025;-72
2022/09/06 04:57:02;;;;;;;9.77;7.63;;;;;;;16.80;85.07;98435.03;7381348;19;20015;-72
2022/09/06 04:59:28;;;;;;;11.68;7.97;;;;;;;16.78;85.40;98437.06;7383801;19;20014;-71
2022/09/06 05:01:56;;;;;;;14.80;8.20;;;;;;;16.81;85.81;98447.34;7379650;19;20010;-71
2022/09/06 05:04:23;;;;;;;9.35;7.05;;;;;;;16.93;85.55;98442.28;7383214;19;20081;-71
2022/09/06 05:06:59;;;;;;;8.27;7.38;;;;;;;16.94;85.53;98460.00;7378319;19;20020;-71
2022/09/06 05:09:25;;;;;;;9.98;8.27;;;;;;;16.94;85.42;98458.16;7386326;19;20496;-73
2022/09/06 05:11:53;;;;;;;9.02;7.55;;;;;;;16.93;85.33;98459.19;7382723;19;20029;-72
2022/09/06 05:14:20;;;;;;;11.05;7.82;;;;;;;16.89;85.42;98456.03;7384388;19;20014;-72
2022/09/06 05:16:47;;;;;;;14.63;8.25;;;;;;;16.90;85.33;98448.84;7384642;19;20013;-73
2022/09/06 05:19:14;;;;;;;10.80;7.30;;;;;;;16.95;85.21;98449.09;7382914;19;20027;-73
2022/09/06 05:21:41;;;;;;;9.23;7.65;;;;;;;17.03;85.24;98451.63;7380894;19;20023;-72
2022/09/06 05:24:07;;;;;;;12.95;7.90;;;;;;;17.09;85.33;98455.38;7383688;19;20018;-73
2022/09/06 05:26:34;;;;;;;7.97;7.05;;;;;;;17.14;85.09;98455.63;7380681;19;20021;-70
2022/09/06 05:29:01;;;;;;;7.15;6.45;;;;;;;17.22;84.90;98454.63;7382491;19;20402;-70
2022/09/06 05:31:30;;;;;;;9.00;7.20;;;;;;;17.25;84.67;98449.72;7377330;19;20014;-70
2022/09/06 05:33:57;;;;;;;8.85;7.00;;;;;;;17.31;84.28;98454.28;7378086;19;20026;-69
2022/09/06 05:36:25;;;;;;;8.60;7.28;;;;;;;17.30;84.00;98457.16;7375154;19;20015;-70
2022/09/06 05:38:53;;;;;;;8.40;7.50;;;;;;;17.37;83.69;98451.84;7379491;19;20046;-70
2022/09/06 05:41:21;;;;;;;9.45;7.10;;;;;;;17.38;83.72;98454.31;7379742;19;20011;-70
2022/09/06 05:43:48;;;;;;;10.25;7.28;;;;;;;17.41;83.66;98456.59;7382344;19;20010;-70
2022/09/06 05:46:15;;;;;;;14.25;7.82;;;;;;;17.40;83.51;98465.63;7382464;19;20505;-69
2022/09/06 05:48:42;;;;;;;7.90;6.97;;;;;;;17.40;83.71;98465.63;7385074;19;20131;-69
2022/09/06 05:51:11;;;;;;;9.38;7.57;;;;;;;17.46;83.68;98466.72;7386625;19;20029;-70
2022/09/06 05:53:43;;;;;;;10.68;7.70;;;;;;;17.45;83.82;98462.38;7384797;19;20092;-70
2022/09/06 05:56:11;;;;;;;9.52;7.40;;;;;;;17.47;83.83;98458.47;7389795;19;20015;-69
2022/09/06 05:58:38;;;;;;;10.25;7.07;;;;;;;17.53;83.72;98452.31;7387264;19;20517;-70
2022/09/06 06:01:18;;;;;;;8.48;7.35;;;;;;;17.52;83.67;98456.03;7388335;19;20026;-70
2022/09/06 06:03:53;;;;;;;10.13;7.45;;;;;;;17.56;83.51;98453.78;7387510;19;20054;-70
2022/09/06 06:06:22;;;;;;;10.85;7.40;;;;;;;17.55;83.25;98452.94;7388499;19;20021;-70
2022/09/06 06:08:49;;;;;;;10.73;7.88;;;;;;;17.55;83.42;98455.63;7385374;19;20018;-70
2022/09/06 06:11:16;;;;;;;10.52;7.75;;;;;;;17.64;83.59;98456.31;7387128;19;20026;-70
2022/09/06 06:13:43;;;;;;;9.18;7.55;;;;;;;17.70;83.49;98457.34;7389539;19;20018;-70
2022/09/06 06:16:12;;;;;;;9.43;7.03;;;;;;;17.83;83.39;98467.31;7389370;19;20029;-70
2022/09/06 06:18:40;;;;;;;9.95;7.95;;;;;;;17.92;83.20;98471.47;7388389;19;20015;-70
2022/09/06 06:21:10;;;;;;;10.10;7.80;;;;;;;17.98;82.84;98476.84;7384054;19;20025;-70
2022/09/06 06:23:37;;;;;;;12.82;8.40;;;;;;;18.06;82.34;98469.66;7387274;19;20463;-70
2022/09/06 06:26:05;;;;;;;11.48;7.70;;;;;;;18.15;81.99;98471.13;7385624;19;20015;-70
2022/09/06 06:28:34;;;;;;;9.93;7.72;;;;;;;18.26;81.96;98473.22;7384332;19;20604;-69
2022/09/06 06:31:02;;;;;;;9.90;7.65;;;;;;;18.43;81.83;98468.28;7384664;19;20364;-70
2022/09/06 06:33:29;;;;;;;10.82;7.60;;;;;;;18.56;81.33;98462.13;7389099;19;20013;-70
2022/09/06 06:36:00;;;;;;;9.13;7.30;;;;;;;18.65;80.91;98460.91;7387961;19;20025;-70
2022/09/06 06:38:36;;;;;;;9.90;7.70;;;;;;;18.80;80.53;98461.56;7387180;19;20017;-71
2022/09/06 06:41:04;;;;;;;9.52;7.65;;;;;;;18.84;80.32;98468.16;7386530;19;20029;-71
2022/09/06 06:43:36;;;;;;;11.75;7.57;;;;;;;18.90;80.32;98460.31;7387678;19;20011;-71
2022/09/06 06:46:04;;;;;;;12.73;8.05;;;;;;;18.99;80.13;98469.81;7389305;19;20018;-71
2022/09/06 06:48:31;;;;;;;10.27;8.27;;;;;;;19.08;79.52;98473.91;7387489;19;20051;-70
2022/09/06 06:50:58;;;;;;;11.40;6.95;;;;;;;19.13;79.12;98474.13;7389449;19;20027;-70
2022/09/06 06:53:25;;;;;;;11.13;7.95;;;;;;;19.15;79.07;98481.97;7388189;19;20015;-70
2022/09/06 06:55:52;;;;;;;11.25;7.32;;;;;;;19.16;79.04;98487.09;7385596;19;20115;-70
2022/09/06 06:58:20;;;;;;;10.35;7.07;;;;;;;19.26;78.76;98475.94;7384964;19;20755;-70
2022/09/06 07:00:47;;;;;;;13.18;7.35;;;;;;;19.45;78.00;98479.63;7385179;19;20775;-70
2022/09/06 07:03:13;;;;;;;8.13;6.70;;;;;;;19.73;76.82;98480.19;7389126;19;20534;-70
2022/09/06 07:05:45;;;;;;;9.55;7.13;;;;;;;19.77;76.25;98477.91;7387508;19;20426;-70
2022/09/06 07:08:32;;;;;;;8.55;6.68;;;;;;;19.82;76.57;98463.84;7381456;19;20010;-70
2022/09/06 07:10:59;;;;;;;7.88;5.78;;;;;;;20.14;75.74;98473.63;7383586;19;20010;-68
2022/09/06 07:13:26;;;;;;;6.13;5.50;;;;;;;20.16;74.57;98468.84;7386067;19;20089;-70
2022/09/06 07:16:12;;;;;;;10.48;5.65;;;;;;;20.44;74.28;98462.28;7385170;19;20022;-70
2022/09/06 07:18:44;;;;;;;5.40;4.90;;;;;;;20.54;73.62;98469.91;7380023;19;20052;-70
2022/09/06 07:21:13;;;;;;;7.68;5.10;;;;;;;20.52;73.42;98472.75;7386388;19;20018;-70
2022/09/06 07:24:00;;;;;;;6.18;4.90;;;;;;;20.56;72.23;98468.63;7387007;19;20021;-71
2022/09/06 07:26:29;;;;;;;8.93;5.53;;;;;;;20.67;72.71;98467.09;7384274;19;20035;-70
2022/09/06 07:29:01;;;;;;;7.65;5.43;;;;;;;21.09;71.69;98466.53;7385187;19;20084;-71
2022/09/06 07:31:30;;;;;;;9.48;4.25;;;;;;;21.17;71.49;98469.78;7385944;19;20098;-70
2022/09/06 07:34:16;;;;;;;6.28;4.15;;;;;;;21.09;69.88;98467.38;7383799;19;20010;-71
2022/09/06 07:36:53;;;;;;;6.30;4.43;;;;;;;20.99;70.93;98470.56;7388136;19;20022;-71
2022/09/06 07:39:24;;;;;;;9.57;4.70;;;;;;;20.76;71.61;98470.34;7385696;19;20061;-71
2022/09/06 07:41:51;;;;;;;10.43;4.95;;;;;;;20.73;71.39;98468.09;7383591;19;20018;-71
2022/09/06 07:44:17;;;;;;;7.50;4.78;;;;;;;20.71;72.37;98475.56;7386869;19;21158;-71
2022/09/06 07:46:44;;;;;;;5.53;4.40;;;;;;;20.59;72.01;98470.06;7385765;19;20022;-72
2022/09/06 07:49:11;;;;;;;7.00;4.22;;;;;;;20.65;72.93;98465.69;7383968;19;20043;-71
2022/09/06 07:51:38;;;;;;;6.40;4.65;;;;;;;20.70;72.54;98469.34;7385960;19;20019;-71
2022/09/06 07:54:05;;;;;;;6.50;4.60;;;;;;;20.68;72.67;98473.31;7387712;19;20018;-71
2022/09/06 07:56:52;;;;;;;7.20;4.53;;;;;;;20.68;71.89;98468.75;7382490;19;20018;-72
2022/09/06 07:59:19;;;;;;;4.72;4.32;;;;;;;20.66;71.90;98472.69;7385095;19;20011;-71
2022/09/06 08:01:47;;;;;;;5.97;4.25;;;;;;;20.78;71.60;98466.38;7384257;19;20014;-71
2022/09/06 08:04:14;;;;;;;5.00;4.50;;;;;;;21.01;71.50;98463.09;7381377;19;20093;-71
2022/09/06 08:06:46;;;;;;;5.82;3.88;;;;;;;21.20;71.15;98460.44;7384541;19;20399;-71
2022/09/06 08:09:33;;;;;;;6.28;4.25;;;;;;;21.46;70.28;98451.31;7386732;19;20039;-71
2022/09/06 08:12:05;;;;;;;6.95;4.30;;;;;;;21.52;69.67;98441.50;7383624;19;20608;-71
2022/09/06 08:14:32;;;;;;;;;;;;;;;21.70;69.56;98447.69;7385506;19;20014;-71
2022/09/06 08:16:59;;;;;;;7.13;4.35;;;;;;;22.01;69.19;98439.63;7382801;19;19923;-71
2022/09/06 08:19:26;;;;;;;5.82;4.03;;;;;;;22.17;68.48;98439.00;7385602;19;22788;-71
2022/09/06 08:21:56;;;;;;;6.53;3.83;;;;;;;22.32;67.60;98442.13;7384469;19;20030;-71
2022/09/06 08:24:23;;;;;;;6.38;4.03;;;;;;;22.46;66.33;98441.91;7379474;19;20007;-71
2022/09/06 08:26:50;;;;;;;5.35;3.78;;;;;;;22.67;65.74;98441.41;7381954;19;20014;-71
2022/09/06 08:29:18;;;;;;;6.88;3.85;;;;;;;22.83;64.91;98444.44;7387637;19;20025;-71
2022/09/06 08:31:45;;;;;;;7.30;3.75;;;;;;;23.04;63.73;98440.38;7386457;19;20015;-71
2022/09/06 08:34:13;;;;;;;6.80;3.90;;;;;;;23.10;63.89;98439.47;7385351;19;20025;-71
2022/09/06 08:36:41;;;;;;;7.45;3.58;;;;;;;23.24;63.91;98430.06;7385053;19;20028;-71
2022/09/06 08:39:08;;;;;;;8.73;4.10;;;;;;;23.33;63.82;98434.03;7385470;19;20014;-72
2022/09/06 08:41:55;;;;;;;6.03;3.25;;;;;;;23.44;62.96;98440.47;7381898;19;20481;-71
2022/09/06 08:44:43;;;;;;;5.95;3.42;;;;;;;23.59;62.47;98438.13;7383815;19;20022;-71
2022/09/06 08:47:25;;;;;;;5.55;3.25;;;;;;;23.63;61.75;98441.16;7384999;19;20408;-71
2022/09/06 08:50:04;;;;;;;5.85;3.25;;;;;;;23.75;61.10;98444.69;7386082;19;20030;-72
2022/09/06 08:52:58;;;;;;;4.68;3.25;;;;;;;23.78;60.71;98443.38;7380879;19;20773;-71
2022/09/06 08:55:58;;;;;;;6.00;3.03;;;;;;;24.00;59.34;98432.72;7382930;19;20086;-70
2022/09/06 08:58:36;;;;;;;4.32;3.35;;;;;;;24.19;59.22;98427.94;7380600;19;20029;-71
2022/09/06 09:01:07;;;;;;;7.03;3.25;;;;;;;24.43;58.25;98432.13;7383218;19;20029;-71
2022/09/06 09:03:36;;;;;;;5.85;3.00;;;;;;;24.88;56.00;98423.19;7385585;19;20023;-71
2022/09/06 09:06:05;;;;;;;11.55;3.42;;;;;;;24.97;56.01;98429.81;7382447;19;20101;-71
2022/09/06 09:08:38;;;;;;;5.72;3.63;;;;;;;25.08;55.06;98425.38;7380624;19;20018;-72
2022/09/06 09:11:07;;;;;;;7.30;3.15;;;;;;;24.89;56.29;98418.59;7383354;19;20015;-72
2022/09/06 09:13:44;;;;;;;8.88;3.78;;;;;;;24.91;56.32;98417.28;7381780;19;20011;-71
2022/09/06 09:16:11;;;;;;;5.13;3.97;;;;;;;25.03;55.82;98419.06;7385230;19;20019;-72
2022/09/06 09:18:42;;;;;;;5.75;3.97;;;;;;;25.40;56.50;98414.72;7385305;19;20022;-73
2022/09/06 09:21:09;;;;;;;5.55;3.38;;;;;;;25.79;53.63;98416.56;7388953;19;20040;-72
2022/09/06 09:23:36;;;;;;;5.25;3.45;;;;;;;25.95;53.50;98409.44;7386897;19;20021;-72
2022/09/06 09:26:05;;;;;;;5.47;3.50;;;;;;;26.10;52.53;98409.63;7390307;19;20019;-72
2022/09/06 09:28:32;;;;;;;8.02;3.50;;;;;;;26.23;52.36;98417.34;7390221;19;20034;-71
2022/09/06 09:30:58;;;;;;;9.80;3.20;;;;;;;26.17;52.42;98407.53;7389373;19;20014;-72
2022/09/06 09:33:34;;;;;;;8.50;3.92;;;;;;;26.26;53.34;98410.59;7392682;19;20026;-72
2022/09/06 09:36:24;;;;;;;9.35;3.60;;;;;;;26.01;53.10;98408.44;7391244;19;20025;-72
2022/09/06 09:38:53;;;;;;;10.05;3.75;;;;;;;25.88;53.75;98404.22;7391108;19;20022;-72
2022/09/06 09:41:32;;;;;;;5.10;3.08;;;;;;;25.76;53.99;98406.22;7386342;19;20074;-71
2022/09/06 09:44:01;;;;;;;6.15;3.72;;;;;;;26.08;53.65;98409.06;7392345;19;20018;-72
2022/09/06 09:46:33;;;;;;;11.38;3.75;;;;;;;25.78;54.42;98401.38;7385232;19;20378;-71
2022/09/06 09:49:11;;;;;;;5.60;2.75;;;;;;;25.99;53.36;98402.47;7391338;19;20010;-72
2022/09/06 09:51:43;;;;;;;7.57;3.60;;;;;;;26.44;52.46;98404.78;7388950;19;20018;-72
2022/09/06 09:54:13;;;;;;;;;;;;;;;26.55;51.74;98408.44;7393283;19;20006;-71
2022/09/06 09:56:44;;;;;;;6.40;3.15;;;;;;;26.81;51.30;98405.94;7383709;19;19919;-71
2022/09/06 09:59:19;;;;;;;9.00;3.43;;;;;;;26.89;49.80;98400.81;7388578;19;20026;-72
2022/09/06 10:01:46;;;;;;;6.47;3.45;;;;;;;26.60;52.29;98404.94;7384711;19;20025;-73
2022/09/06 10:04:27;;;;;;;10.00;4.13;;;;;;;26.36;52.64;98407.97;7386687;19;20022;-72
2022/09/06 10:07:15;;;;;;;5.53;3.42;;;;;;;26.58;52.61;98402.47;7390728;19;20044;-71
2022/09/06 10:09:45;;;;;;;4.22;2.80;;;;;;;26.53;51.89;98396.19;7392638;19;20021;-71
2022/09/06 10:12:27;;;;;;;6.35;3.08;;;;;;;26.75;51.45;98391.47;7388538;19;20014;-72
2022/09/06 10:14:54;;;;;;;6.45;4.25;;;;;;;26.97;50.24;98387.84;7389464;19;20021;-72
2022/09/06 10:17:29;;;;;;;7.57;3.35;;;;;;;27.06;50.43;98389.78;7391795;19;20014;-73
2022/09/06 10:20:09;;;;;;;10.48;3.63;;;;;;;27.46;48.98;98382.97;7389616;19;20014;-72
2022/09/06 10:22:44;;;;;;;11.27;4.47;;;;;;;27.58;48.71;98377.31;7385505;19;20496;-72
2022/09/06 10:25:30;;;;;;;7.72;3.55;;;;;;;27.67;49.14;98380.31;7392514;19;20015;-72
2022/09/06 10:28:22;;;;;;;8.25;3.00;;;;;;;28.10;47.82;98378.28;7388666;19;20029;-72
2022/09/06 10:31:10;;;;;;;8.73;3.28;;;;;;;28.08;45.46;98375.00;7388643;19;20380;-72
2022/09/06 10:34:14;;;;;;;7.95;3.67;;;;;;;28.15;47.08;98381.81;7391922;19;20025;-72
2022/09/06 10:36:55;;;;;;;9.20;3.00;;;;;;;28.22;45.14;98365.22;7385748;19;20774;-72
2022/09/06 10:39:28;;;;;;;9.45;3.40;;;;;;;28.29;46.71;98364.97;7388620;19;20010;-72
2022/09/06 10:42:14;;;;;;;5.30;3.08;;;;;;;28.34;45.75;98357.63;7387368;19;20032;-72
2022/09/06 10:45:04;;;;;;;6.38;3.20;;;;;;;28.69;46.26;98360.63;7391620;19;20179;-72
2022/09/06 10:47:55;;;;;;;8.20;3.15;;;;;;;28.55;46.41;98352.22;7386167;19;20536;-72
2022/09/06 10:50:29;;;;;;;11.02;2.63;;;;;;;28.42;43.48;98353.53;7387578;19;20025;-72
2022/09/06 10:53:03;;;;;;;5.68;2.53;;;;;;;28.33;43.47;98353.28;7383818;19;20014;-71
2022/09/06 10:55:31;;;;;;;7.07;2.72;;;;;;;28.41;42.50;98352.72;7388090;19;20015;-73
2022/09/06 10:58:03;;;;;;;4.55;1.90;;;;;;;28.79;41.84;98355.19;7386260;19;20019;-73
2022/09/06 11:00:47;;;;;;;6.35;2.03;;;;;;;28.57;43.06;98352.72;7385725;19;20023;-74
2022/09/06 11:03:34;;;;;;;6.43;2.00;;;;;;;28.58;41.54;98351.66;7386472;19;20012;-73
2022/09/06 11:06:27;;;;;;;6.88;2.22;;;;;;;28.67;41.24;98344.56;7378392;19;20010;-72
2022/09/06 11:09:15;;;;;;;9.18;2.90;;;;;;;28.41;43.23;98347.28;7385602;19;20078;-73
2022/09/06 11:12:11;;;;;;;6.03;2.33;;;;;;;28.34;42.11;98341.31;7386248;19;20474;-72
2022/09/06 11:14:39;;;;;;;7.80;2.63;;;;;;;28.29;42.72;98338.56;7388090;19;20014;-72
2022/09/06 11:17:10;;;;;;;6.03;2.95;;;;;;;28.21;44.37;98336.41;7387488;19;20025;-73
2022/09/06 11:19:58;;;;;;;9.13;2.97;;;;;;;28.17;43.87;98338.03;7388551;19;20885;-72
2022/09/06 11:22:41;;;;;;;10.40;3.38;;;;;;;27.95;44.77;98335.56;7389653;19;20022;-73
2022/09/06 11:25:23;;;;;;;9.60;2.92;;;;;;;28.52;44.96;98331.81;7385920;19;20023;-72
2022/09/06 11:27:53;;;;;;;10.10;3.30;;;;;;;28.71;44.29;98342.13;7385096;19;20073;-73
2022/09/06 11:30:24;;;;;;;4.47;2.80;;;;;;;28.20;44.50;98338.31;7390821;19;20544;-73
2022/09/06 11:33:07;;;;;;;9.07;3.88;;;;;;;28.38;45.52;98341.56;7386859;19;20014;-72
2022/09/06 11:35:35;;;;;;;7.07;2.78;;;;;;;28.38;45.45;98344.28;7386840;19;20025;-73
2022/09/06 11:38:04;;;;;;;9.65;3.30;;;;;;;27.62;45.80;98337.66;7383049;19;20366;-73
2022/09/06 11:40:45;;;;;;;6.85;2.97;;;;;;;27.26;47.02;98342.94;7387745;19;20021;-72
2022/09/06 11:43:31;;;;;;;7.13;3.00;;;;;;;27.81;46.26;98337.19;7383934;19;20018;-72
2022/09/06 11:45:57;;;;;;;5.78;2.40;;;;;;;28.01;44.35;98340.72;7388917;19;20255;-72
2022/09/06 11:48:32;;;;;;;11.57;3.17;;;;;;;27.72;44.76;98345.81;7387647;19;20019;-71
2022/09/06 11:51:06;;;;;;;10.82;3.67;;;;;;;27.61;45.23;98336.00;7388799;19;20502;-71
2022/09/06 11:53:47;;;;;;;5.07;2.65;;;;;;;27.14;46.48;98326.81;7386889;19;20057;-73